Time;durP1;ratioP1;P1;durP2;ratioP2;P2;SDS_P1;SDS_P2;PMS_P1;PMS_P2;Temp;Humidity;BMP_temperature;BMP_pressure;BME280_temperature;BME280_humidity;BME280_pressure;Samples;Min_cycle;Max_cycle;Signal;HPM_P1;HPM_P2
2022/02/25 00:01:52;;;;;;;22.45;17.02;;;4.60;73.90;;;;;;5088261;28;20048;-62
2022/02/25 00:04:17;;;;;;;24.60;19.13;;;4.60;73.80;;;;;;5091931;28;20039;-62
2022/02/25 00:06:43;;;;;;;22.52;15.40;;;4.60;73.50;;;;;;5082137;28;20444;-62
2022/02/25 00:09:09;;;;;;;25.45;18.50;;;4.50;73.50;;;;;;5072199;28;20021;-62
2022/02/25 00:11:34;;;;;;;26.00;17.95;;;4.50;73.70;;;;;;5085932;28;20031;-62
2022/02/25 00:14:00;;;;;;;23.08;16.20;;;4.50;73.80;;;;;;5092333;28;20449;-62
2022/02/25 00:16:26;;;;;;;21.33;17.38;;;4.50;73.90;;;;;;5075836;28;20052;-62
2022/02/25 00:18:51;;;;;;;26.45;19.52;;;4.60;74.20;;;;;;5078248;28;20403;-62
2022/02/25 00:21:17;;;;;;;24.80;16.35;;;4.60;73.90;;;;;;5089494;28;20071;-62
2022/02/25 00:23:42;;;;;;;27.50;18.08;;;4.60;73.80;;;;;;5091890;28;20036;-62
2022/02/25 00:26:09;;;;;;;25.05;16.95;;;4.60;74.40;;;;;;5081444;28;20032;-62
2022/02/25 00:28:35;;;;;;;20.73;17.48;;;4.60;73.90;;;;;;5085810;28;20399;-62
2022/02/25 00:31:00;;;;;;;20.58;14.45;;;4.60;74.10;;;;;;5085208;28;20028;-62
2022/02/25 00:33:27;;;;;;;22.58;17.95;;;4.70;74.30;;;;;;5084524;28;20585;-62
2022/02/25 00:35:53;;;;;;;20.60;12.63;;;4.70;74.50;;;;;;5088541;28;20048;-62
2022/02/25 00:38:19;;;;;;;22.27;17.33;;;4.70;74.30;;;;;;5074197;28;20082;-62
2022/02/25 00:40:46;;;;;;;19.30;14.45;;;4.70;74.30;;;;;;5083809;28;20035;-62
2022/02/25 00:43:13;;;;;;;23.92;16.73;;;4.80;74.20;;;;;;5087317;28;20044;-62
2022/02/25 00:45:39;;;;;;;21.92;16.15;;;4.80;74.20;;;;;;5085012;28;20380;-62
2022/02/25 00:48:05;;;;;;;22.73;14.35;;;4.90;74.40;;;;;;5088636;28;20079;-62
2022/02/25 00:50:30;;;;;;;21.35;15.45;;;4.90;74.20;;;;;;5086333;28;20024;-62
2022/02/25 00:52:56;;;;;;;16.48;11.93;;;4.90;74.10;;;;;;5077292;28;20017;-62
2022/02/25 00:55:23;;;;;;;19.33;15.25;;;4.90;74.00;;;;;;5082095;28;20055;-62
2022/02/25 00:57:50;;;;;;;17.33;13.13;;;4.90;74.00;;;;;;5088391;28;20024;-62
2022/02/25 01:00:19;;;;;;;20.90;14.93;;;4.90;73.90;;;;;;5090777;28;20055;-62
2022/02/25 01:02:46;;;;;;;18.65;14.75;;;4.90;73.90;;;;;;5080794;28;20107;-62
2022/02/25 01:05:12;;;;;;;21.33;14.10;;;5.00;74.00;;;;;;5091912;28;20056;-62
2022/02/25 01:07:43;;;;;;;18.67;15.43;;;5.00;73.80;;;;;;5074046;28;20032;-62
2022/02/25 01:10:12;;;;;;;18.90;14.90;;;5.00;73.80;;;;;;5080357;28;20036;-62
2022/02/25 01:12:37;;;;;;;15.77;12.05;;;5.00;73.80;;;;;;5091523;28;20105;-62
2022/02/25 01:15:04;;;;;;;18.38;14.55;;;5.00;73.60;;;;;;5085628;28;20029;-62
2022/02/25 01:17:31;;;;;;;20.92;13.88;;;5.00;73.80;;;;;;5091281;28;20024;-62
2022/02/25 01:19:57;;;;;;;18.02;14.15;;;5.00;73.70;;;;;;5091553;28;20097;-62
2022/02/25 01:22:24;;;;;;;21.00;14.25;;;5.00;73.50;;;;;;5088400;28;20028;-62
2022/02/25 01:24:50;;;;;;;17.42;11.90;;;5.00;73.60;;;;;;5080417;28;20030;-62
2022/02/25 01:27:16;;;;;;;16.80;12.43;;;5.00;73.50;;;;;;5095632;28;20035;-62
2022/02/25 01:29:42;;;;;;;15.48;11.90;;;5.00;73.70;;;;;;5086220;28;20028;-62
2022/02/25 01:32:08;;;;;;;16.40;12.45;;;5.00;73.70;;;;;;5095245;28;20525;-62
2022/02/25 01:34:34;;;;;;;18.98;13.98;;;5.00;73.70;;;;;;5092845;28;20136;-62
2022/02/25 01:37:00;;;;;;;18.70;15.50;;;5.00;73.70;;;;;;5095417;28;20055;-62
2022/02/25 01:39:25;;;;;;;19.60;15.60;;;5.00;73.70;;;;;;5084198;28;20025;-62
2022/02/25 01:41:51;;;;;;;20.90;13.40;;;5.00;73.70;;;;;;5091555;28;20077;-62
2022/02/25 01:44:22;;;;;;;19.50;15.13;;;4.90;73.50;;;;;;5089450;28;20059;-62
2022/02/25 01:46:52;;;;;;;14.65;10.88;;;4.90;73.70;;;;;;5095496;28;20027;-62
2022/02/25 01:49:19;;;;;;;12.60;9.82;;;4.90;73.70;;;;;;5078109;28;20548;-62
2022/02/25 01:51:46;;;;;;;10.73;8.07;;;4.90;73.50;;;;;;5086119;28;20025;-62
2022/02/25 01:54:12;;;;;;;9.95;7.95;;;4.80;73.30;;;;;;5067487;28;20511;-62
2022/02/25 01:56:39;;;;;;;6.95;5.85;;;4.70;73.20;;;;;;5093439;28;20020;-62
2022/02/25 01:59:05;;;;;;;8.10;6.63;;;4.60;73.00;;;;;;5091226;28;20032;-62
2022/02/25 02:01:31;;;;;;;8.98;7.45;;;4.50;73.00;;;;;;5094458;28;20384;-62
2022/02/25 02:03:57;;;;;;;9.32;6.38;;;4.50;73.00;;;;;;5094329;28;20032;-62
2022/02/25 02:06:23;;;;;;;9.27;6.05;;;4.40;72.90;;;;;;5075938;28;20028;-62
2022/02/25 02:08:49;;;;;;;6.82;5.25;;;4.30;73.10;;;;;;5086828;28;20050;-62
2022/02/25 02:11:31;;;;;;;7.07;6.25;;;4.20;73.20;;;;;;5094356;28;20383;-62
2022/02/25 02:13:59;;;;;;;8.20;5.72;;;4.20;73.20;;;;;;5091739;28;20548;-62
2022/02/25 02:16:25;;;;;;;7.72;5.50;;;4.10;73.10;;;;;;5089567;28;20371;-62
2022/02/25 02:18:51;;;;;;;8.50;6.15;;;4.10;73.10;;;;;;5091030;28;20016;-62
2022/02/25 02:21:17;;;;;;;8.55;6.38;;;4.00;73.10;;;;;;5092681;28;20054;-62
2022/02/25 02:23:43;;;;;;;8.60;5.97;;;4.00;73.20;;;;;;5088803;28;20059;-62
2022/02/25 02:26:09;;;;;;;7.20;5.47;;;4.00;73.10;;;;;;5082407;28;20086;-62
2022/02/25 02:28:35;;;;;;;7.65;5.47;;;3.90;73.10;;;;;;5086498;28;20032;-62
2022/02/25 02:31:00;;;;;;;7.05;5.80;;;3.90;73.20;;;;;;5090423;28;20480;-62
2022/02/25 02:33:26;;;;;;;6.88;5.32;;;3.90;73.10;;;;;;5081888;28;20429;-62
2022/02/25 02:35:52;;;;;;;8.00;5.68;;;3.90;73.00;;;;;;5091178;28;20051;-62
2022/02/25 02:38:17;;;;;;;8.57;6.28;;;3.70;73.00;;;;;;5084246;28;20116;-62
2022/02/25 02:40:43;;;;;;;8.82;5.45;;;3.70;73.30;;;;;;5087481;28;20462;-62
2022/02/25 02:43:12;;;;;;;8.55;5.47;;;3.70;73.40;;;;;;5093513;28;20024;-62
2022/02/25 02:45:39;;;;;;;6.40;5.00;;;3.70;73.60;;;;;;5093986;28;20024;-62
2022/02/25 02:48:05;;;;;;;7.30;4.93;;;3.60;73.60;;;;;;5079100;28;20047;-62
2022/02/25 02:50:31;;;;;;;7.90;5.53;;;3.60;73.60;;;;;;5082395;28;20037;-62
2022/02/25 02:52:57;;;;;;;9.48;6.32;;;3.50;73.60;;;;;;5087491;28;20086;-62
2022/02/25 02:55:23;;;;;;;7.43;5.63;;;3.50;73.80;;;;;;5093067;28;20059;-62
2022/02/25 02:57:52;;;;;;;8.90;6.53;;;3.50;73.80;;;;;;5083236;28;20054;-62
2022/02/25 03:00:18;;;;;;;7.88;7.03;;;3.50;73.80;;;;;;5091517;28;20031;-62
2022/02/25 03:02:44;;;;;;;8.23;5.72;;;3.60;73.90;;;;;;5083080;28;20024;-62
2022/02/25 03:05:11;;;;;;;8.63;5.80;;;3.70;73.90;;;;;;5089399;28;20058;-62
2022/02/25 03:07:37;;;;;;;8.95;5.75;;;3.70;73.90;;;;;;5074550;28;20029;-62
2022/02/25 03:10:05;;;;;;;9.07;5.32;;;3.80;73.80;;;;;;5093699;28;20030;-62
2022/02/25 03:12:32;;;;;;;7.93;5.47;;;3.90;73.60;;;;;;5084471;28;20017;-62
2022/02/25 03:14:58;;;;;;;7.82;5.60;;;3.90;73.40;;;;;;5084599;28;20058;-62
2022/02/25 03:17:24;;;;;;;8.82;6.05;;;3.90;73.20;;;;;;5088060;28;20024;-62
2022/02/25 03:19:50;;;;;;;9.82;6.72;;;3.90;73.10;;;;;;5093223;28;20360;-62
2022/02/25 03:22:16;;;;;;;8.65;6.50;;;4.00;73.20;;;;;;5088883;28;20073;-62
2022/02/25 03:24:41;;;;;;;10.02;6.65;;;4.00;73.20;;;;;;5089209;28;20024;-62
2022/02/25 03:27:07;;;;;;;9.30;6.57;;;4.00;73.20;;;;;;5083501;28;20090;-62
2022/02/25 03:29:33;;;;;;;7.80;5.65;;;4.10;73.20;;;;;;5092653;28;20067;-62
2022/02/25 03:31:58;;;;;;;9.38;6.35;;;4.10;73.10;;;;;;5082183;28;20020;-62
2022/02/25 03:34:24;;;;;;;9.88;6.78;;;4.10;72.90;;;;;;5086055;28;20085;-62
2022/02/25 03:36:50;;;;;;;9.30;7.65;;;4.10;72.80;;;;;;5092763;28;20020;-62
2022/02/25 03:39:15;;;;;;;8.75;6.43;;;4.10;72.70;;;;;;5078943;28;20062;-62
2022/02/25 03:41:41;;;;;;;8.48;6.00;;;4.10;72.50;;;;;;5092968;28;20034;-62
2022/02/25 03:44:07;;;;;;;10.95;7.22;;;4.10;72.70;;;;;;5088092;28;20035;-62
2022/02/25 03:46:32;;;;;;;10.50;6.53;;;4.10;72.70;;;;;;5074660;28;20032;-62
2022/02/25 03:48:58;;;;;;;8.65;6.53;;;4.20;72.60;;;;;;5075056;28;20021;-62
2022/02/25 03:51:26;;;;;;;10.00;6.50;;;4.20;72.60;;;;;;5091806;28;20032;-62
2022/02/25 03:53:52;;;;;;;10.93;6.97;;;4.20;72.60;;;;;;5091713;28;20487;-62
2022/02/25 03:56:18;;;;;;;9.55;6.15;;;4.20;72.40;;;;;;5084601;28;20024;-62
2022/02/25 03:58:44;;;;;;;12.15;8.35;;;4.20;72.00;;;;;;5072549;28;20043;-62
2022/02/25 04:01:10;;;;;;;10.82;7.53;;;4.20;72.20;;;;;;5089807;28;20070;-62
2022/02/25 04:03:35;;;;;;;9.65;8.10;;;4.20;72.20;;;;;;5091913;28;20028;-62
2022/02/25 04:06:01;;;;;;;9.13;6.65;;;4.20;72.60;;;;;;5076770;28;20036;-62
2022/02/25 04:08:27;;;;;;;8.38;6.20;;;4.20;73.10;;;;;;5092515;28;20055;-62
2022/02/25 04:10:53;;;;;;;10.13;6.05;;;4.20;72.40;;;;;;5083865;28;20024;-62
2022/02/25 04:13:18;;;;;;;9.00;6.80;;;4.30;72.50;;;;;;5076490;28;20042;-62
2022/02/25 04:15:45;;;;;;;8.75;6.60;;;4.30;72.50;;;;;;5091922;28;20024;-62
2022/02/25 04:18:10;;;;;;;10.25;6.63;;;4.30;72.50;;;;;;5089630;28;20028;-62
2022/02/25 04:20:37;;;;;;;8.07;6.65;;;4.30;72.50;;;;;;5091752;28;20381;-62
2022/02/25 04:23:03;;;;;;;9.20;7.57;;;4.30;72.50;;;;;;5090982;28;20545;-62
2022/02/25 04:25:29;;;;;;;9.07;6.63;;;4.30;72.50;;;;;;5082505;28;20032;-62
2022/02/25 04:27:55;;;;;;;13.77;10.32;;;4.30;72.30;;;;;;5071927;28;20024;-62
2022/02/25 04:30:22;;;;;;;10.98;7.53;;;4.30;72.00;;;;;;5078948;28;20077;-62
2022/02/25 04:32:48;;;;;;;11.68;8.23;;;4.30;71.90;;;;;;5075528;28;20064;-62
2022/02/25 04:35:14;;;;;;;12.10;7.40;;;4.30;72.20;;;;;;5090901;28;20063;-62
2022/02/25 04:37:39;;;;;;;7.75;6.25;;;4.30;72.20;;;;;;5079556;28;20021;-62
2022/02/25 04:40:06;;;;;;;7.88;5.75;;;4.30;72.20;;;;;;5081359;28;20035;-62
2022/02/25 04:42:32;;;;;;;9.45;6.85;;;4.20;72.00;;;;;;5080198;28;20024;-62
2022/02/25 04:44:58;;;;;;;9.77;6.25;;;4.10;72.00;;;;;;5085952;28;20107;-62
2022/02/25 04:47:23;;;;;;;10.02;8.55;;;4.10;72.20;;;;;;5083899;28;20036;-62
2022/02/25 04:49:49;;;;;;;11.60;6.80;;;4.00;72.50;;;;;;5074536;28;20426;-62
2022/02/25 04:52:17;;;;;;;11.60;8.00;;;3.90;72.50;;;;;;5074933;28;20082;-62
2022/02/25 04:54:44;;;;;;;11.90;8.80;;;3.90;72.90;;;;;;5087417;28;20032;-62
2022/02/25 04:57:10;;;;;;;9.52;6.20;;;4.00;73.20;;;;;;5088062;28;20032;-62
2022/02/25 04:59:37;;;;;;;9.43;6.40;;;4.00;73.00;;;;;;5091473;28;20107;-62
2022/02/25 05:02:03;;;;;;;9.88;7.60;;;4.10;73.00;;;;;;5079803;28;20108;-62
2022/02/25 05:04:28;;;;;;;7.68;5.53;;;4.10;72.90;;;;;;5091379;28;20114;-62
2022/02/25 05:06:54;;;;;;;8.43;6.03;;;4.00;72.50;;;;;;5095715;28;20031;-62
2022/02/25 05:09:20;;;;;;;8.45;5.50;;;3.90;72.50;;;;;;5092998;28;20427;-62
2022/02/25 05:11:45;;;;;;;8.30;5.40;;;3.90;72.70;;;;;;5095325;28;20019;-62
2022/02/25 05:20:15;;;;;;;9.23;5.75;;;3.80;72.90;;;;;;5095114;28;20537;-62
2022/02/25 05:22:25;;;;;;;9.55;5.85;;;3.60;73.30;;;;;;5082449;28;20415;-62
2022/02/25 05:24:51;;;;;;;10.55;7.28;;;3.60;73.40;;;;;;5086319;28;20029;-62
2022/02/25 05:27:17;;;;;;;9.20;7.30;;;3.60;73.60;;;;;;5076380;28;20028;-62
2022/02/25 05:29:43;;;;;;;9.45;6.10;;;3.70;73.60;;;;;;5094885;28;20024;-62
2022/02/25 05:32:09;;;;;;;9.88;6.32;;;3.70;73.70;;;;;;5095331;28;20078;-62
2022/02/25 05:34:35;;;;;;;9.48;6.22;;;3.80;73.60;;;;;;5087616;28;20067;-62
2022/02/25 05:37:00;;;;;;;10.68;7.03;;;3.90;73.80;;;;;;5092086;28;20080;-62
2022/02/25 05:39:26;;;;;;;11.25;7.22;;;4.00;73.80;;;;;;5090963;28;20496;-62
2022/02/25 05:41:52;;;;;;;10.23;7.90;;;4.10;73.60;;;;;;5091768;28;20036;-62
2022/02/25 05:44:17;;;;;;;10.18;7.15;;;4.20;73.40;;;;;;5091956;28;20034;-62
2022/02/25 05:46:43;;;;;;;9.55;7.60;;;4.30;73.30;;;;;;5094807;28;20082;-62
2022/02/25 05:49:09;;;;;;;10.50;7.53;;;4.40;73.10;;;;;;5094575;28;20039;-62
2022/02/25 05:51:35;;;;;;;10.15;7.07;;;4.50;73.10;;;;;;5090665;28;20472;-62
2022/02/25 05:54:00;;;;;;;10.95;6.93;;;4.50;73.00;;;;;;5081581;28;20019;-62
2022/02/25 05:56:26;;;;;;;9.98;7.82;;;4.60;72.90;;;;;;5079689;28;20024;-62
2022/02/25 05:58:53;;;;;;;12.55;8.85;;;4.70;72.80;;;;;;5093125;28;20124;-62
2022/02/25 06:01:19;;;;;;;11.77;9.27;;;4.90;72.70;;;;;;5094196;28;20035;-62
2022/02/25 06:03:44;;;;;;;11.40;8.15;;;4.90;72.50;;;;;;5091434;28;20361;-62
2022/02/25 06:06:10;;;;;;;10.57;8.32;;;5.00;72.40;;;;;;5092581;28;20028;-62
2022/02/25 06:08:36;;;;;;;10.48;7.72;;;5.10;72.30;;;;;;5088152;28;20031;-62
2022/02/25 06:11:02;;;;;;;10.57;7.60;;;5.30;72.30;;;;;;5084863;28;20365;-62
2022/02/25 06:13:28;;;;;;;11.10;8.52;;;5.30;72.20;;;;;;5083404;28;20034;-62
2022/02/25 06:15:54;;;;;;;9.90;7.70;;;5.50;72.10;;;;;;5091707;28;20016;-62
2022/02/25 06:18:20;;;;;;;10.50;8.40;;;5.70;71.80;;;;;;5094244;28;20062;-62
2022/02/25 06:20:46;;;;;;;9.63;7.95;;;5.80;71.70;;;;;;5092953;28;20046;-62
2022/02/25 06:23:12;;;;;;;9.63;8.38;;;5.90;71.40;;;;;;5090848;28;20032;-62
2022/02/25 06:25:38;;;;;;;8.23;7.00;;;6.10;70.70;;;;;;5091082;28;20056;-62
2022/02/25 06:28:05;;;;;;;10.45;8.05;;;6.20;70.30;;;;;;5092124;28;20028;-62
2022/02/25 06:30:31;;;;;;;8.80;7.35;;;6.30;69.80;;;;;;5089308;28;20016;-62
2022/02/25 06:32:58;;;;;;;8.57;6.95;;;6.50;69.40;;;;;;5088895;28;20077;-62
2022/02/25 06:35:27;;;;;;;9.63;8.18;;;6.50;68.60;;;;;;5093442;28;20492;-62
2022/02/25 06:37:53;;;;;;;9.63;7.70;;;6.50;68.30;;;;;;5090590;28;20461;-62
2022/02/25 06:40:19;;;;;;;9.15;7.57;;;6.50;67.90;;;;;;5067329;28;20032;-62
2022/02/25 06:42:45;;;;;;;8.57;7.43;;;6.50;68.10;;;;;;5093254;28;20121;-62
2022/02/25 06:45:11;;;;;;;9.02;7.68;;;6.50;67.90;;;;;;5093513;28;20043;-62
2022/02/25 06:47:37;;;;;;;9.82;8.23;;;6.50;68.10;;;;;;5075200;28;20028;-62
2022/02/25 06:50:04;;;;;;;8.65;7.47;;;6.60;67.80;;;;;;5082975;28;20035;-62
2022/02/25 06:52:30;;;;;;;9.18;8.20;;;6.70;67.80;;;;;;5091413;28;20529;-62
2022/02/25 06:54:56;;;;;;;9.30;8.27;;;6.70;67.60;;;;;;5085867;28;20020;-62
2022/02/25 06:57:22;;;;;;;9.35;7.53;;;6.70;67.40;;;;;;5073448;28;20032;-62
2022/02/25 06:59:47;;;;;;;9.40;7.90;;;6.70;67.60;;;;;;5088825;28;20047;-62
2022/02/25 07:02:13;;;;;;;8.65;6.75;;;6.70;67.50;;;;;;5092053;28;20119;-62
2022/02/25 07:04:40;;;;;;;9.55;7.80;;;6.70;67.30;;;;;;5088324;28;20539;-62
2022/02/25 07:07:06;;;;;;;9.43;7.35;;;6.70;66.60;;;;;;5092990;28;20580;-62
2022/02/25 07:09:32;;;;;;;10.30;7.55;;;6.60;66.70;;;;;;5091327;28;20028;-62
2022/02/25 07:11:57;;;;;;;8.93;7.45;;;6.40;66.60;;;;;;5091086;28;20103;-62
2022/02/25 07:14:23;;;;;;;11.05;8.13;;;6.30;66.80;;;;;;5086816;28;20031;-62
2022/02/25 07:16:49;;;;;;;10.98;8.02;;;6.20;67.20;;;;;;5092863;28;20028;-62
2022/02/25 07:19:14;;;;;;;10.50;7.82;;;6.20;67.40;;;;;;5092495;28;20403;-62
2022/02/25 07:21:40;;;;;;;10.15;8.30;;;6.20;67.50;;;;;;5081912;28;20016;-62
2022/02/25 07:24:06;;;;;;;9.32;7.63;;;6.20;67.70;;;;;;5089147;28;20034;-62
2022/02/25 07:26:32;;;;;;;9.02;7.65;;;6.20;67.60;;;;;;5073281;28;20491;-62
2022/02/25 07:28:58;;;;;;;10.68;8.63;;;6.20;67.50;;;;;;5074634;28;20064;-62
2022/02/25 07:31:24;;;;;;;9.52;7.90;;;6.20;67.50;;;;;;5089872;28;20024;-62
2022/02/25 07:33:50;;;;;;;10.38;7.40;;;6.20;67.60;;;;;;5084360;28;20097;-62
2022/02/25 07:36:15;;;;;;;9.20;8.18;;;6.30;67.50;;;;;;5084004;28;20050;-62
2022/02/25 07:38:41;;;;;;;12.70;8.43;;;6.20;67.40;;;;;;5086983;28;20093;-62
2022/02/25 07:41:07;;;;;;;10.73;8.48;;;6.20;68.00;;;;;;5084249;28;20031;-62
2022/02/25 07:43:33;;;;;;;11.95;8.57;;;6.20;67.40;;;;;;5086771;28;20392;-62
2022/02/25 07:45:58;;;;;;;10.68;8.80;;;6.30;67.70;;;;;;5083390;28;20024;-62
2022/02/25 07:48:24;;;;;;;9.25;7.80;;;6.30;67.30;;;;;;5083710;28;20024;-62
2022/02/25 07:50:50;;;;;;;10.68;8.43;;;6.30;67.40;;;;;;5085040;28;20093;-62
2022/02/25 07:53:16;;;;;;;10.70;8.63;;;6.30;67.50;;;;;;5086012;28;20016;-62
2022/02/25 07:55:42;;;;;;;11.77;9.15;;;6.30;67.50;;;;;;5083695;28;20480;-62
2022/02/25 07:58:08;;;;;;;10.90;8.60;;;6.30;67.50;;;;;;5088707;28;20028;-62
2022/02/25 08:00:34;;;;;;;10.55;8.80;;;6.30;67.60;;;;;;5085643;28;20027;-62
2022/02/25 08:03:03;;;;;;;10.55;8.85;;;6.30;67.60;;;;;;5096466;28;20379;-61
2022/02/25 08:05:31;;;;;;;10.82;8.68;;;6.30;67.50;;;;;;5085343;28;20024;-61
2022/02/25 08:07:58;;;;;;;11.00;9.10;;;6.30;67.70;;;;;;5085598;28;20024;-61
2022/02/25 08:10:24;;;;;;;10.57;8.48;;;6.30;67.80;;;;;;5080265;28;20016;-61
2022/02/25 08:12:50;;;;;;;10.75;8.88;;;6.40;67.80;;;;;;5082651;28;20067;-61
2022/02/25 08:15:16;;;;;;;12.10;8.93;;;6.40;67.70;;;;;;5086388;28;20052;-61
2022/02/25 08:17:41;;;;;;;10.98;8.82;;;6.40;67.60;;;;;;5087520;28;20138;-61
2022/02/25 08:20:08;;;;;;;11.45;8.85;;;6.40;67.70;;;;;;5082011;28;20032;-61
2022/02/25 08:22:34;;;;;;;12.85;8.88;;;6.40;67.70;;;;;;5086811;28;20121;-61
2022/02/25 08:25:00;;;;;;;13.90;9.05;;;6.40;67.60;;;;;;5084712;28;20115;-61
2022/02/25 08:27:26;;;;;;;11.43;9.23;;;6.40;67.60;;;;;;5078989;28;20059;-62
2022/02/25 08:29:51;;;;;;;12.18;9.63;;;6.40;67.60;;;;;;5083097;28;20060;-61
2022/02/25 08:32:17;;;;;;;13.13;9.35;;;6.40;67.60;;;;;;5085676;28;20020;-63
2022/02/25 08:34:43;;;;;;;10.35;9.10;;;6.40;67.60;;;;;;5089415;28;20040;-61
2022/02/25 08:37:08;;;;;;;11.98;9.65;;;6.40;67.60;;;;;;5088998;28;20024;-61
2022/02/25 08:39:35;;;;;;;11.20;8.55;;;6.40;67.70;;;;;;5090229;28;20081;-59
2022/02/25 08:42:00;;;;;;;15.32;9.75;;;6.40;67.50;;;;;;5089192;28;20024;-61
2022/02/25 08:44:26;;;;;;;11.93;9.23;;;6.40;67.50;;;;;;5085861;28;20024;-61
2022/02/25 08:46:52;;;;;;;11.40;8.88;;;6.40;67.40;;;;;;5084941;28;20032;-63
2022/02/25 08:49:17;;;;;;;10.80;9.32;;;6.40;67.60;;;;;;5092763;28;20068;-61
2022/02/25 08:51:43;;;;;;;11.02;9.60;;;6.40;67.70;;;;;;5091758;28;20028;-61
2022/02/25 08:54:10;;;;;;;11.13;9.20;;;6.40;67.90;;;;;;5086383;28;20028;-61
2022/02/25 08:56:38;;;;;;;9.88;8.65;;;6.30;67.70;;;;;;5089776;28;20028;-61
2022/02/25 08:59:04;;;;;;;11.23;9.02;;;6.30;67.80;;;;;;5082333;28;20384;-63
2022/02/25 09:01:30;;;;;;;11.35;8.57;;;6.30;67.90;;;;;;5085074;28;20060;-63
2022/02/25 09:03:56;;;;;;;12.15;9.13;;;6.20;67.90;;;;;;5091204;28;20062;-61
2022/02/25 09:06:22;;;;;;;12.10;9.52;;;6.20;68.00;;;;;;5086684;28;20077;-61
2022/02/25 09:08:47;;;;;;;11.50;9.32;;;6.20;68.20;;;;;;5086794;28;20024;-61
2022/02/25 09:11:13;;;;;;;12.05;8.60;;;6.20;68.20;;;;;;5086272;28;20433;-61
2022/02/25 09:13:40;;;;;;;12.90;9.70;;;6.20;68.00;;;;;;5094019;28;20024;-61
2022/02/25 09:16:08;;;;;;;12.27;9.02;;;6.20;67.90;;;;;;5085990;28;20032;-63
2022/02/25 09:18:33;;;;;;;9.95;8.50;;;6.20;67.80;;;;;;5090724;28;20480;-61
2022/02/25 09:20:59;;;;;;;14.52;9.45;;;6.20;68.00;;;;;;5090402;28;20028;-61
2022/02/25 09:23:25;;;;;;;11.40;9.73;;;6.20;68.10;;;;;;5092140;28;20020;-61
2022/02/25 09:25:51;;;;;;;12.80;9.38;;;6.20;68.10;;;;;;5082023;28;20028;-61
2022/02/25 09:28:17;;;;;;;10.93;8.45;;;6.20;68.00;;;;;;5090446;28;20165;-62
2022/02/25 09:30:42;;;;;;;14.35;9.10;;;6.20;68.10;;;;;;5090417;28;20039;-63
2022/02/25 09:33:08;;;;;;;10.75;9.40;;;6.20;68.10;;;;;;5086090;28;20496;-61
2022/02/25 09:35:34;;;;;;;13.93;9.70;;;6.20;68.10;;;;;;5083227;28;20045;-61
2022/02/25 09:38:00;;;;;;;10.77;8.98;;;6.20;68.00;;;;;;5085712;28;20024;-61
2022/02/25 09:40:25;;;;;;;10.98;9.38;;;6.20;68.10;;;;;;5087056;28;20388;-63
2022/02/25 09:42:51;;;;;;;12.52;9.88;;;6.20;68.10;;;;;;5086198;28;20499;-63
2022/02/25 09:45:17;;;;;;;12.10;9.35;;;6.30;68.20;;;;;;5087516;28;20020;-61
2022/02/25 09:47:44;;;;;;;13.55;9.75;;;6.20;68.00;;;;;;5085202;28;20054;-61
2022/02/25 09:50:12;;;;;;;11.50;9.73;;;6.20;68.00;;;;;;5088026;28;20028;-61
2022/02/25 09:52:39;;;;;;;13.95;9.63;;;6.30;68.10;;;;;;5090144;28;21006;-63
2022/02/25 09:55:26;;;;;;;10.88;9.25;;;6.30;68.10;;;;;;5091751;28;20423;-61
2022/02/25 09:57:53;;;;;;;12.48;9.73;;;6.30;67.80;;;;;;5089894;28;20051;-61
2022/02/25 10:00:19;;;;;;;12.10;9.45;;;6.30;67.80;;;;;;5092749;28;20050;-61
2022/02/25 10:02:48;;;;;;;12.73;9.88;;;6.30;67.80;;;;;;5093542;28;20035;-61
2022/02/25 10:05:20;;;;;;;11.32;9.20;;;6.30;67.80;;;;;;5091425;28;20042;-61
2022/02/25 10:07:46;;;;;;;11.10;9.27;;;6.30;67.70;;;;;;5089432;28;20484;-61
2022/02/25 10:10:14;;;;;;;12.93;9.85;;;6.40;67.70;;;;;;5089082;28;20042;-61
2022/02/25 10:12:46;;;;;;;15.00;11.73;;;6.40;67.60;;;;;;5089924;28;20024;-61
2022/02/25 10:15:13;;;;;;;13.98;10.38;;;6.40;67.60;;;;;;5087749;28;20035;-61
2022/02/25 10:17:39;;;;;;;12.32;9.57;;;6.40;67.50;;;;;;5089697;28;20457;-61
2022/02/25 10:20:07;;;;;;;13.73;10.00;;;6.50;67.60;;;;;;5088930;28;20078;-61
2022/02/25 10:22:38;;;;;;;12.13;10.23;;;6.60;67.40;;;;;;5085518;28;20032;-61
2022/02/25 10:25:07;;;;;;;15.18;9.80;;;6.60;67.30;;;;;;5093724;28;20652;-61
2022/02/25 10:27:38;;;;;;;13.45;10.32;;;6.60;67.40;;;;;;5089657;28;20040;-61
2022/02/25 10:30:08;;;;;;;14.02;10.40;;;6.60;67.40;;;;;;5085660;28;20388;-61
2022/02/25 10:32:36;;;;;;;12.80;9.55;;;6.70;67.50;;;;;;5082157;28;20460;-61
2022/02/25 10:35:24;;;;;;;14.63;10.65;;;6.70;67.60;;;;;;5085980;28;20098;-61
2022/02/25 10:38:03;;;;;;;12.50;9.95;;;6.70;67.60;;;;;;5090198;28;20032;-61
2022/02/25 10:40:37;;;;;;;13.80;10.27;;;6.80;67.60;;;;;;5090610;28;20437;-61
2022/02/25 10:43:08;;;;;;;15.27;10.02;;;6.80;68.30;;;;;;5085279;28;20042;-61
2022/02/25 10:45:39;;;;;;;;;;;6.80;67.80;;;;;;5083455;28;20031;-61
2022/02/25 10:48:07;;;;;;;11.95;9.85;;;6.70;67.70;;;;;;5090766;28;19915;-61
2022/02/25 10:50:53;;;;;;;12.40;9.20;;;6.70;67.70;;;;;;5088307;28;20525;-61
2022/02/25 10:53:28;;;;;;;10.60;7.63;;;6.80;67.60;;;;;;5087751;28;20020;-63
2022/02/25 10:56:11;;;;;;;10.63;8.02;;;6.80;67.30;;;;;;5087003;28;20040;-63
2022/02/25 10:58:42;;;;;;;9.40;7.22;;;6.80;66.90;;;;;;5090999;28;20499;-61
2022/02/25 11:01:11;;;;;;;10.65;8.10;;;6.70;66.80;;;;;;5086790;28;20058;-63
2022/02/25 11:03:37;;;;;;;11.05;8.88;;;6.80;66.90;;;;;;5087690;28;20036;-62
2022/02/25 11:06:12;;;;;;;10.45;8.60;;;6.80;66.90;;;;;;5086103;28;20020;-61
2022/02/25 11:08:42;;;;;;;12.85;9.77;;;6.80;66.90;;;;;;5083847;28;20519;-61
2022/02/25 11:11:09;;;;;;;11.90;9.10;;;6.80;66.80;;;;;;5086520;28;20024;-61
2022/02/25 11:13:35;;;;;;;10.32;8.25;;;6.90;67.50;;;;;;5081929;28;20032;-61
2022/02/25 11:16:01;;;;;;;10.30;8.48;;;6.90;66.80;;;;;;5086319;28;20229;-61
2022/02/25 11:18:26;;;;;;;10.73;8.25;;;6.90;66.70;;;;;;5086346;28;20119;-61
2022/02/25 11:20:54;;;;;;;10.38;8.13;;;6.90;66.60;;;;;;5089958;28;20118;-61
2022/02/25 11:23:21;;;;;;;10.48;8.73;;;7.00;66.50;;;;;;5085341;28;20024;-61
2022/02/25 11:25:48;;;;;;;11.43;8.52;;;7.00;66.50;;;;;;5085428;28;20043;-61
2022/02/25 11:28:15;;;;;;;10.23;8.10;;;7.00;66.40;;;;;;5087616;28;20059;-61
2022/02/25 11:31:10;;;;;;;9.23;7.90;;;7.10;66.30;;;;;;5085586;28;20116;-61
2022/02/25 11:33:36;;;;;;;11.95;8.73;;;7.10;66.10;;;;;;5091069;28;20476;-62
2022/02/25 11:36:05;;;;;;;12.25;9.23;;;7.10;66.00;;;;;;5090546;28;20036;-61
2022/02/25 11:38:40;;;;;;;10.85;9.23;;;7.20;65.90;;;;;;5084353;28;20024;-63
2022/02/25 11:41:29;;;;;;;12.82;10.50;;;7.20;65.80;;;;;;5081378;28;20174;-61
2022/02/25 11:43:55;;;;;;;11.73;9.45;;;7.20;65.60;;;;;;5087664;28;20115;-63
2022/02/25 11:46:28;;;;;;;13.15;9.98;;;7.20;65.70;;;;;;5084704;28;20028;-61
2022/02/25 11:49:13;;;;;;;10.57;9.48;;;7.20;65.70;;;;;;5087193;28;20028;-61
2022/02/25 11:51:54;;;;;;;12.55;9.45;;;7.20;65.40;;;;;;5086007;28;20072;-61
2022/02/25 11:54:34;;;;;;;12.95;10.07;;;7.30;65.50;;;;;;5076634;28;20096;-61
2022/02/25 11:57:00;;;;;;;12.07;9.65;;;7.30;65.50;;;;;;5070306;28;20053;-61
2022/02/25 11:59:31;;;;;;;10.75;8.90;;;7.30;65.70;;;;;;5055856;28;20033;-61
2022/02/25 12:02:17;;;;;;;10.05;8.77;;;7.30;65.40;;;;;;5081247;28;20696;-61
2022/02/25 12:04:47;;;;;;;11.73;8.88;;;7.20;65.30;;;;;;5072493;28;20039;-61
2022/02/25 12:07:13;;;;;;;12.68;9.57;;;7.20;65.40;;;;;;5091132;28;20085;-61
2022/02/25 12:09:49;;;;;;;12.48;9.88;;;7.10;65.20;;;;;;5086372;28;20031;-62
2022/02/25 12:12:34;;;;;;;11.35;9.07;;;7.20;65.20;;;;;;5089547;28;20492;-61
2022/02/25 12:15:00;;;;;;;11.30;9.43;;;7.20;65.40;;;;;;5076599;28;20056;-61
2022/02/25 12:17:44;;;;;;;11.20;9.10;;;7.20;65.40;;;;;;5070924;28;20056;-61
2022/02/25 12:20:31;;;;;;;11.18;9.13;;;7.20;65.30;;;;;;5084335;28;20032;-61
2022/02/25 12:23:02;;;;;;;13.05;9.88;;;7.20;65.30;;;;;;5085795;28;20021;-61
2022/02/25 12:25:40;;;;;;;11.63;10.15;;;7.20;65.40;;;;;;5086147;28;20097;-61
2022/02/25 12:28:27;;;;;;;13.77;9.65;;;7.20;65.40;;;;;;5070221;28;20036;-61
2022/02/25 12:31:23;;;;;;;11.82;9.77;;;7.30;65.40;;;;;;5083274;28;20040;-61
2022/02/25 12:33:56;;;;;;;13.75;10.40;;;7.20;65.40;;;;;;5074841;28;20036;-63
2022/02/25 12:36:27;;;;;;;13.68;10.18;;;7.30;65.40;;;;;;5091231;28;20067;-61
2022/02/25 12:39:08;;;;;;;;;;;7.30;65.30;;;;;;5089620;28;20379;-62
2022/02/25 12:41:35;;;;;;;10.52;8.30;;;7.20;65.50;;;;;;5085857;28;20372;-62
2022/02/25 12:44:07;;;;;;;11.15;8.80;;;7.30;65.40;;;;;;5072446;28;20032;-61
2022/02/25 12:46:43;;;;;;;12.45;9.70;;;7.20;65.30;;;;;;5090085;28;20422;-61
2022/02/25 12:49:14;;;;;;;9.43;8.15;;;7.10;65.40;;;;;;5091036;28;20410;-61
2022/02/25 12:51:40;;;;;;;;;;;7.10;65.30;;;;;;5084044;28;20025;-61
2022/02/25 12:54:09;;;;;;;11.45;8.70;;;6.90;64.80;;;;;;5073365;28;20360;-61
2022/02/25 12:56:40;;;;;;;11.27;8.43;;;6.90;65.20;;;;;;5074268;28;20029;-61